Time;durP1;ratioP1;P1;durP2;ratioP2;P2;SDS_P1;SDS_P2;PMS_P1;PMS_P2;Temp;Humidity;BMP_temperature;BMP_pressure;BME280_temperature;BME280_humidity;BME280_pressure;Samples;Min_cycle;Max_cycle;Signal;HPM_P1;HPM_P2
2023/03/26 00:02:06;;;;;;;1.53;1.00;;;8.90;99.90;;;-141.84;67.64;19608.56;5073514;28;20240;-73
2023/03/26 00:04:34;;;;;;;3.53;1.20;;;8.80;99.90;;;-141.84;67.54;19626.88;5073813;28;20285;-75
2023/03/26 00:07:03;;;;;;;1.27;0.90;;;8.80;99.90;;;-141.84;68.10;19594.34;5073596;28;20224;-73
2023/03/26 00:09:32;;;;;;;1.37;1.13;;;8.80;99.90;;;-141.84;68.39;19578.09;5074236;28;20231;-58
2023/03/26 00:12:00;;;;;;;1.03;0.90;;;8.70;99.90;;;-141.84;68.09;19643.13;5072723;28;20286;-60
2023/03/26 00:14:29;;;;;;;1.13;0.73;;;8.80;99.90;;;-141.84;68.79;19578.09;5072912;28;20229;-58
2023/03/26 00:16:58;;;;;;;1.07;0.80;;;8.70;99.90;;;-141.84;68.94;19578.09;5073015;28;20644;-58
2023/03/26 00:19:29;;;;;;;0.70;0.70;;;8.70;99.90;;;-141.84;68.87;19596.38;5073194;28;20228;-58
2023/03/26 00:21:57;;;;;;;1.63;0.90;;;8.70;99.90;;;-141.84;69.59;19565.91;5072725;28;20247;-58
2023/03/26 00:24:28;;;;;;;0.73;0.70;;;8.70;99.90;;;-141.84;69.45;19600.44;5073188;28;20228;-59
2023/03/26 00:26:58;;;;;;;1.03;1.00;;;8.70;99.90;;;-141.84;70.63;19561.84;5072496;28;20255;-59
2023/03/26 00:29:27;;;;;;;2.97;1.10;;;8.60;99.90;;;-141.84;71.01;19569.97;5072431;28;20237;-59
2023/03/26 00:31:55;;;;;;;2.97;1.10;;;8.50;99.90;;;-141.84;71.23;19578.09;5072721;28;20231;-59
2023/03/26 00:34:25;;;;;;;1.00;0.90;;;8.50;99.90;;;-141.84;71.06;19557.78;5072931;28;20220;-60
2023/03/26 00:36:53;;;;;;;2.10;1.20;;;8.50;99.90;;;-141.84;70.60;19565.91;5072997;28;20227;-59
2023/03/26 00:39:23;;;;;;;1.30;0.90;;;8.60;99.90;;;-141.84;70.46;19606.53;5073226;28;20220;-59
2023/03/26 00:41:53;;;;;;;2.17;1.30;;;8.50;99.90;;;-141.84;70.71;19569.97;5072245;28;20227;-58
2023/03/26 00:44:22;;;;;;;0.97;0.83;;;8.50;99.90;;;-141.84;71.53;19523.22;5072276;28;20229;-58
2023/03/26 00:46:50;;;;;;;1.77;1.03;;;8.40;99.90;;;-141.84;71.58;19561.84;5072341;28;20761;-58
2023/03/26 00:49:18;;;;;;;2.13;1.03;;;8.40;99.90;;;-141.84;71.60;19588.25;5072497;28;20225;-58
2023/03/26 00:51:48;;;;;;;1.10;0.80;;;8.40;99.90;;;-141.84;71.90;19576.06;5072849;28;20208;-58
2023/03/26 00:54:16;;;;;;;3.50;1.30;;;8.50;99.90;;;-141.84;73.38;19523.22;5072649;28;20200;-57
2023/03/26 00:56:44;;;;;;;1.50;0.90;;;8.40;99.90;;;-141.84;73.80;19545.56;5071743;28;20231;-59
2023/03/26 00:59:12;;;;;;;1.93;1.00;;;8.30;99.90;;;-141.84;73.92;19569.97;5072265;28;20251;-59
2023/03/26 01:01:41;;;;;;;2.00;1.10;;;8.30;99.90;;;-141.84;73.68;19521.19;5072271;28;20227;-56
2023/03/26 01:04:29;;;;;;;1.30;1.00;;;8.30;99.90;;;-141.84;72.88;19543.53;5072254;28;20228;-58
2023/03/26 01:07:04;;;;;;;1.70;1.10;;;8.30;99.90;;;-141.84;73.85;19519.16;5072216;28;20572;-57
2023/03/26 01:09:41;;;;;;;1.33;1.10;;;8.30;99.90;;;-141.84;72.73;19541.50;5072907;28;20209;-58
2023/03/26 01:12:15;;;;;;;1.40;1.20;;;8.30;99.90;;;-141.84;72.33;19527.28;5052260;28;20708;-58
2023/03/26 01:14:45;;;;;;;1.23;1.13;;;8.30;99.90;;;-141.84;73.26;19537.44;5051828;28;20238;-58
2023/03/26 01:17:15;;;;;;;1.60;1.50;;;8.30;99.90;;;-141.84;73.66;19541.50;5051941;28;20225;-59
2023/03/26 01:19:53;;;;;;;2.03;1.50;;;8.20;99.90;;;-141.84;73.01;19545.56;5052045;28;20240;-60
2023/03/26 01:22:25;;;;;;;2.00;1.80;;;8.30;99.90;;;-141.84;73.80;19521.19;5037201;28;20489;-59
2023/03/26 01:24:55;;;;;;;1.57;1.33;;;8.20;99.90;;;-141.84;73.31;19551.69;4998910;28;20207;-58
2023/03/26 01:27:37;;;;;;;1.20;1.10;;;8.20;99.90;;;-141.84;73.06;19539.47;5032447;28;20206;-57
2023/03/26 01:30:17;;;;;;;2.03;1.00;;;8.20;99.90;;;-141.84;73.09;19529.31;5032069;28;20226;-58
2023/03/26 01:33:01;;;;;;;1.63;0.90;;;8.20;99.90;;;-141.84;73.39;19529.31;5031671;28;20260;-58
2023/03/26 01:35:41;;;;;;;2.83;1.30;;;8.20;99.90;;;-141.84;73.94;19504.94;5016789;28;20288;-58
2023/03/26 01:38:24;;;;;;;1.07;0.80;;;8.20;99.90;;;-141.84;73.09;19533.38;5012163;28;20281;-58
2023/03/26 01:41:04;;;;;;;1.80;1.00;;;8.30;99.90;;;-141.84;71.89;19549.63;5022033;28;20232;-58
2023/03/26 01:43:43;;;;;;;4.27;1.10;;;8.40;99.90;;;-141.84;72.48;19515.09;5024130;28;20227;-59
2023/03/26 01:46:15;;;;;;;1.10;0.90;;;8.30;99.90;;;-141.84;72.77;19525.25;5012104;28;20229;-60
2023/03/26 01:48:47;;;;;;;1.57;0.80;;;8.30;99.90;;;-141.84;72.36;19509.00;5011588;28;20246;-58
2023/03/26 01:51:28;;;;;;;1.53;0.80;;;8.30;99.90;;;-141.84;72.34;19517.13;5012265;28;20202;-58
2023/03/26 01:53:58;;;;;;;1.97;1.00;;;8.30;99.90;;;-141.84;72.47;19529.31;5011298;28;20722;-58
2023/03/26 01:56:38;;;;;;;1.83;1.00;;;8.20;99.90;;;-141.84;72.86;19525.25;5011623;28;20234;-57
2023/03/26 01:59:31;;;;;;;1.53;0.90;;;8.20;99.90;;;-141.84;72.69;19500.88;5011271;28;20285;-58
2023/03/26 02:02:10;;;;;;;1.40;0.90;;;8.20;99.90;;;-141.84;72.52;19529.31;5022365;28;20280;-58
2023/03/26 02:04:52;;;;;;;1.20;0.90;;;8.20;99.90;;;-141.84;71.78;19547.59;5011542;28;20230;-61
2023/03/26 02:07:27;;;;;;;1.43;1.00;;;8.20;99.90;;;-141.84;72.48;19496.81;5005382;28;20224;-59
2023/03/26 02:10:05;;;;;;;1.20;0.90;;;8.20;99.90;;;-141.84;72.93;19531.34;4991978;28;20218;-60
2023/03/26 02:12:36;;;;;;;1.53;0.87;;;8.10;99.90;;;-141.84;72.96;19492.75;4991900;28;20195;-59
2023/03/26 02:15:06;;;;;;;0.90;0.90;;;8.10;99.90;;;-141.84;73.01;19506.97;4992101;28;20242;-57
2023/03/26 02:17:35;;;;;;;1.57;1.00;;;8.10;99.90;;;-141.84;73.45;19484.59;5007136;28;20318;-58
2023/03/26 02:20:04;;;;;;;1.57;1.10;;;8.00;99.90;;;-141.84;73.07;19527.28;5011360;28;20257;-59
2023/03/26 02:22:39;;;;;;;2.57;1.40;;;8.00;99.90;;;-141.84;73.48;19492.75;5020462;28;20226;-57
2023/03/26 02:25:10;;;;;;;3.57;1.50;;;8.00;99.90;;;-141.84;73.78;19482.56;5054902;28;20251;-58
2023/03/26 02:27:40;;;;;;;1.53;1.23;;;7.90;99.90;;;-141.84;74.44;19476.47;5071042;28;20201;-59
2023/03/26 02:30:13;;;;;;;2.03;1.27;;;7.90;99.90;;;-141.84;74.50;19484.59;5070630;28;20228;-59
2023/03/26 02:32:43;;;;;;;1.50;1.40;;;7.80;99.90;;;-141.84;74.93;19448.03;5070790;28;20400;-59
2023/03/26 02:35:12;;;;;;;2.77;1.47;;;7.80;99.90;;;-141.84;74.94;19502.91;5070732;28;20361;-58
2023/03/26 02:37:45;;;;;;;1.50;1.30;;;7.80;99.90;;;-141.84;75.74;19437.88;5070195;28;20715;-59
2023/03/26 02:40:14;;;;;;;3.63;1.30;;;7.70;99.90;;;-141.84;75.98;19474.44;5070589;28;20274;-58
2023/03/26 02:42:44;;;;;;;1.83;1.17;;;7.70;99.90;;;-141.84;75.84;19441.94;5077301;28;20192;-59
2023/03/26 02:45:12;;;;;;;1.57;1.37;;;7.70;99.90;;;-141.84;75.09;19472.41;5091216;28;20200;-61
2023/03/26 02:47:42;;;;;;;2.17;1.30;;;7.70;99.90;;;-141.84;75.66;19448.03;5090595;28;20224;-59
2023/03/26 02:50:10;;;;;;;2.63;1.20;;;7.60;99.90;;;-141.84;76.14;19433.81;5090370;28;20248;-58
2023/03/26 02:52:39;;;;;;;2.20;1.43;;;7.60;99.90;;;-141.84;76.26;19425.69;5090077;28;20805;-58
2023/03/26 02:55:08;;;;;;;2.17;1.30;;;7.60;99.90;;;-141.84;76.08;19472.41;5070357;28;20234;-62
2023/03/26 02:57:36;;;;;;;2.70;1.60;;;7.60;99.90;;;-141.84;76.41;19448.03;5070582;28;20209;-59
2023/03/26 03:00:14;;;;;;;2.43;1.40;;;7.60;99.90;;;-141.84;75.79;19462.25;5055756;28;20217;-58
2023/03/26 03:02:46;;;;;;;2.47;1.50;;;7.70;99.90;;;-141.84;75.91;19460.22;5064216;28;20244;-60
2023/03/26 03:05:16;;;;;;;1.63;1.40;;;7.70;99.90;;;-141.84;75.88;19456.16;5069986;28;20232;-60
2023/03/26 03:07:45;;;;;;;1.80;1.20;;;7.80;99.90;;;-141.84;76.64;19450.06;5069931;28;20591;-60
2023/03/26 03:10:14;;;;;;;1.83;1.57;;;7.70;99.90;;;-141.84;77.26;19446.00;5070028;28;20227;-61
2023/03/26 03:12:43;;;;;;;3.30;1.60;;;7.60;99.90;;;-141.84;76.88;19446.00;5070147;28;20207;-59
2023/03/26 03:15:13;;;;;;;5.83;1.50;;;7.70;99.90;;;-141.84;76.80;19464.28;5070467;28;20208;-60
2023/03/26 03:17:42;;;;;;;4.20;1.40;;;7.60;99.90;;;-141.84;77.14;19448.03;5069667;28;20221;-60
2023/03/26 03:20:11;;;;;;;3.60;1.40;;;7.60;99.90;;;-141.84;77.62;19448.03;5069711;28;20229;-61
2023/03/26 03:22:40;;;;;;;3.10;1.47;;;7.50;99.90;;;-141.84;77.92;19435.84;5052437;28;20249;-60
2023/03/26 03:25:13;;;;;;;2.10;1.53;;;7.50;99.90;;;-141.84;77.81;19435.84;5050218;28;20552;-61
2023/03/26 03:27:41;;;;;;;2.67;1.57;;;7.40;99.90;;;-141.84;77.68;19429.75;5058573;28;20269;-58
2023/03/26 03:30:14;;;;;;;2.87;1.87;;;7.50;99.90;;;-141.84;77.89;19448.03;5070230;28;20286;-58
2023/03/26 03:32:42;;;;;;;2.47;1.60;;;7.50;99.90;;;-141.84;77.67;19443.97;5069942;28;20229;-59
2023/03/26 03:35:10;;;;;;;3.20;1.60;;;7.60;99.90;;;-141.84;77.84;19429.75;5069621;28;20232;-59
2023/03/26 03:37:38;;;;;;;3.53;1.50;;;7.60;99.90;;;-141.84;76.74;19464.28;5069839;28;20217;-60
2023/03/26 03:40:09;;;;;;;3.53;2.00;;;7.60;99.90;;;-141.84;77.32;19478.50;5069727;28;20502;-58
2023/03/26 03:42:38;;;;;;;1.80;1.30;;;7.70;99.90;;;-141.84;76.18;19443.97;5070584;28;20370;-59
2023/03/26 03:45:07;;;;;;;2.57;1.70;;;7.70;99.90;;;-141.84;76.44;19448.03;5069768;28;20639;-58
2023/03/26 03:47:37;;;;;;;2.53;1.37;;;7.70;99.90;;;-141.84;75.59;19488.69;5069643;28;20224;-58
2023/03/26 03:50:07;;;;;;;2.23;1.53;;;7.80;99.90;;;-141.84;74.98;19486.66;5069524;28;20551;-58
2023/03/26 03:52:36;;;;;;;1.90;1.20;;;7.90;99.90;;;-141.84;74.76;19458.19;5069549;28;20216;-58
2023/03/26 03:55:05;;;;;;;2.20;1.30;;;7.90;99.90;;;-141.84;75.45;19464.28;5069721;28;20239;-58
2023/03/26 03:57:33;;;;;;;2.70;1.40;;;7.90;99.90;;;-141.84;75.44;19456.16;5068336;28;20795;-59
2023/03/26 04:00:02;;;;;;;2.60;1.50;;;7.90;99.90;;;-141.84;75.77;19486.66;5069267;28;20217;-57
2023/03/26 04:02:34;;;;;;;2.07;1.60;;;7.80;99.90;;;-141.84;75.89;19474.44;5069437;28;20236;-56
2023/03/26 04:05:06;;;;;;;1.90;1.50;;;7.70;99.90;;;-141.84;76.12;19448.03;5069540;28;20221;-59
2023/03/26 04:07:34;;;;;;;2.10;1.60;;;7.60;99.90;;;-141.84;76.40;19466.31;5069526;28;20221;-59
2023/03/26 04:10:02;;;;;;;2.73;1.70;;;7.60;99.90;;;-141.84;76.81;19409.41;5069328;28;20704;-59
2023/03/26 04:12:31;;;;;;;2.53;1.53;;;7.50;99.90;;;-141.84;77.16;19399.25;5069860;28;20228;-58
2023/03/26 04:14:59;;;;;;;1.77;1.40;;;7.40;99.90;;;-141.84;76.88;19435.84;5068787;28;20606;-58
2023/03/26 04:17:29;;;;;;;4.90;1.60;;;7.40;99.90;;;-141.84;76.88;19427.72;5069352;28;20724;-59
2023/03/26 04:20:05;;;;;;;3.17;1.57;;;7.40;99.90;;;-141.84;76.97;19411.44;5069389;28;20730;-59
2023/03/26 04:22:35;;;;;;;2.33;2.13;;;7.40;99.90;;;-141.84;76.62;19431.78;5052628;28;20217;-59
2023/03/26 04:25:04;;;;;;;2.83;1.63;;;7.40;99.90;;;-141.84;76.65;19437.88;5049493;28;20228;-58
2023/03/26 04:27:35;;;;;;;3.97;1.63;;;7.40;99.90;;;-141.84;76.09;19437.88;5055884;28;20221;-56
2023/03/26 04:30:07;;;;;;;2.43;1.67;;;7.30;99.90;;;-141.84;76.25;19448.03;5069133;28;20233;-58
2023/03/26 04:32:37;;;;;;;2.77;1.47;;;7.40;99.90;;;-141.84;76.19;19417.56;5072688;28;20235;-59
2023/03/26 04:35:06;;;;;;;2.90;1.77;;;7.40;99.90;;;-141.84;76.67;19415.50;5072905;28;20227;-59
2023/03/26 04:37:39;;;;;;;2.20;1.50;;;7.40;99.90;;;-141.84;75.78;19443.97;5072928;28;20220;-59
2023/03/26 04:40:13;;;;;;;4.03;1.53;;;7.40;99.90;;;-141.84;76.65;19419.59;5072930;28;20231;-57
2023/03/26 04:42:45;;;;;;;2.73;1.20;;;7.40;99.90;;;-141.84;76.55;19419.59;5072450;28;20609;-59
2023/03/26 04:45:16;;;;;;;3.23;1.50;;;7.30;99.90;;;-141.84;76.66;19427.72;5073386;28;20185;-57
2023/03/26 04:47:45;;;;;;;1.53;1.20;;;7.30;99.90;;;-141.84;76.22;19411.44;5072680;28;20303;-57
2023/03/26 04:50:13;;;;;;;4.10;1.50;;;7.30;99.90;;;-141.84;77.22;19393.16;5072528;28;20282;-56
2023/03/26 04:52:43;;;;;;;2.73;1.53;;;7.20;99.90;;;-141.84;77.09;19376.91;5072409;28;20231;-58
2023/03/26 04:55:24;;;;;;;3.40;1.40;;;7.20;99.90;;;-141.84;77.40;19370.81;5072640;28;20767;-56
2023/03/26 04:57:58;;;;;;;3.97;1.60;;;7.10;99.90;;;-141.84;77.42;19364.72;5072383;28;20208;-57
2023/03/26 05:00:27;;;;;;;2.23;1.40;;;7.10;99.90;;;-141.84;77.03;19399.25;5072704;28;20180;-59
2023/03/26 05:02:56;;;;;;;1.80;1.30;;;7.20;99.90;;;-141.84;76.42;19407.38;5072246;28;20731;-57
2023/03/26 05:05:25;;;;;;;2.23;1.27;;;7.30;99.90;;;-141.84;75.05;19435.84;5072266;28;20312;-57
2023/03/26 05:07:55;;;;;;;2.33;1.40;;;7.40;99.90;;;-141.84;75.05;19474.44;5072351;28;20234;-57
2023/03/26 05:10:24;;;;;;;1.93;1.03;;;7.50;99.90;;;-141.84;74.04;19452.09;5071943;28;20241;-57
2023/03/26 05:12:52;;;;;;;1.63;1.30;;;7.70;99.90;;;-141.84;74.03;19464.28;5071841;28;20211;-59
2023/03/26 05:15:20;;;;;;;2.80;1.40;;;7.70;99.90;;;-141.84;73.45;19486.66;5072652;28;20208;-57
2023/03/26 05:17:49;;;;;;;1.80;1.40;;;7.80;99.90;;;-141.84;73.71;19492.75;5072179;28;20228;-58
2023/03/26 05:20:20;;;;;;;1.43;1.33;;;7.80;99.90;;;-141.84;73.17;19500.88;5071934;28;20228;-59
2023/03/26 05:22:49;;;;;;;2.57;1.20;;;7.90;99.90;;;-141.84;73.20;19474.44;5053311;28;21363;-60
2023/03/26 05:25:19;;;;;;;2.33;1.37;;;7.90;99.90;;;-141.84;73.11;19478.50;5052161;28;20221;-59
2023/03/26 05:27:48;;;;;;;2.20;1.33;;;8.00;99.90;;;-141.84;71.92;19521.19;5059662;28;20201;-58
2023/03/26 05:30:20;;;;;;;1.27;1.17;;;8.10;99.90;;;-141.84;71.83;19543.53;5072299;28;20215;-57
2023/03/26 05:32:49;;;;;;;1.37;1.27;;;8.10;99.90;;;-141.84;72.18;19513.06;5071552;28;20219;-59
2023/03/26 05:35:18;;;;;;;2.40;1.20;;;8.10;99.90;;;-141.84;72.29;19496.81;5071845;28;20228;-58
2023/03/26 05:37:48;;;;;;;1.10;1.00;;;8.10;99.90;;;-141.84;70.97;19533.38;5071579;28;20229;-56
2023/03/26 05:40:18;;;;;;;2.50;1.40;;;8.20;99.90;;;-141.84;71.09;19586.22;5071502;28;20650;-58
2023/03/26 05:42:47;;;;;;;1.60;1.40;;;8.30;99.90;;;-141.84;71.05;19504.94;5071362;28;20185;-58
2023/03/26 05:45:15;;;;;;;5.43;1.53;;;8.30;99.90;;;-141.84;70.28;19555.75;5072248;28;20193;-58
2023/03/26 05:47:44;;;;;;;3.03;2.03;;;8.40;99.90;;;-141.84;70.27;19574.03;5071306;28;20736;-59
2023/03/26 05:50:12;;;;;;;2.40;1.33;;;8.50;99.90;;;-141.84;70.52;19537.44;5071314;28;20232;-59
2023/03/26 05:52:40;;;;;;;2.30;1.40;;;8.50;99.90;;;-141.84;69.79;19594.34;5071128;28;20224;-58
2023/03/26 05:55:10;;;;;;;3.47;1.60;;;8.50;99.90;;;-141.84;70.63;19569.97;5071547;28;20228;-58
2023/03/26 05:57:40;;;;;;;3.77;1.77;;;8.50;99.90;;;-141.84;70.84;19557.78;5071792;28;20219;-59
2023/03/26 06:00:11;;;;;;;5.60;2.57;;;8.50;99.90;;;-141.84;70.26;19565.91;5071748;28;20205;-58
2023/03/26 06:02:41;;;;;;;2.90;1.83;;;8.50;99.90;;;-141.84;70.34;19539.47;5070952;28;20220;-58
2023/03/26 06:05:11;;;;;;;3.07;1.80;;;8.50;99.90;;;-141.84;70.55;19561.84;5071200;28;20668;-58
2023/03/26 06:07:39;;;;;;;3.33;2.07;;;8.50;99.90;;;-141.84;70.11;19569.97;5070683;28;20776;-59
2023/03/26 06:10:09;;;;;;;2.67;2.03;;;8.60;99.90;;;-141.84;69.18;19565.91;5071192;28;20225;-58
2023/03/26 06:12:46;;;;;;;2.77;1.50;;;8.70;99.90;;;-141.84;69.64;19549.63;5070610;28;20284;-59
2023/03/26 06:15:14;;;;;;;4.17;2.00;;;8.60;99.90;;;-141.84;69.92;19561.84;5071821;28;20204;-60
2023/03/26 06:17:43;;;;;;;1.50;1.30;;;8.70;99.90;;;-141.84;69.74;19592.31;5070675;28;20228;-59
2023/03/26 06:20:13;;;;;;;1.70;1.30;;;8.70;99.90;;;-141.84;69.57;19594.34;5070854;28;20224;-59
2023/03/26 06:22:41;;;;;;;1.50;1.30;;;8.70;99.90;;;-141.84;69.84;19590.28;5053049;28;20617;-59
2023/03/26 06:25:09;;;;;;;2.10;1.30;;;8.80;99.90;;;-141.84;69.60;19578.09;5051147;28;20236;-61
2023/03/26 06:27:37;;;;;;;1.43;1.27;;;8.80;99.90;;;-141.84;69.01;19590.28;5057696;28;20652;-58
2023/03/26 06:30:09;;;;;;;1.13;1.03;;;8.90;99.90;;;-141.84;67.94;19622.81;5070857;28;20223;-60
2023/03/26 06:32:37;;;;;;;3.07;1.20;;;8.90;99.90;;;-141.84;67.94;19604.50;5068476;28;20232;-60
2023/03/26 06:35:06;;;;;;;2.23;1.23;;;8.90;99.90;;;-141.84;68.53;19608.56;5070604;28;20307;-59
2023/03/26 06:37:35;;;;;;;2.30;1.30;;;8.90;99.90;;;-141.84;68.37;19608.56;5070057;28;20475;-59
2023/03/26 06:40:03;;;;;;;1.10;1.00;;;8.90;99.90;;;-141.84;68.57;19608.56;5070689;28;20232;-58
2023/03/26 06:42:31;;;;;;;2.17;1.43;;;9.00;99.90;;;-141.84;67.97;19632.97;5070434;28;20585;-59
2023/03/26 06:45:21;;;;;;;1.40;1.20;;;9.00;99.90;;;-141.84;67.62;19649.22;5070560;28;20212;-57
2023/03/26 06:47:49;;;;;;;1.50;1.40;;;9.10;99.90;;;-141.84;66.40;19681.75;5069706;28;20228;-61
2023/03/26 06:50:17;;;;;;;1.50;1.30;;;9.20;99.90;;;-141.84;67.07;19698.00;5069775;28;20229;-60
2023/03/26 06:52:46;;;;;;;1.80;1.33;;;9.20;99.90;;;-141.84;67.20;19628.91;5069898;28;20235;-61
2023/03/26 06:55:14;;;;;;;1.83;1.60;;;9.20;99.90;;;-141.84;67.63;19651.25;5069902;28;20221;-60
2023/03/26 06:57:44;;;;;;;2.23;1.00;;;9.30;99.90;;;-141.84;66.88;19675.63;5070030;28;20212;-60
2023/03/26 07:00:14;;;;;;;2.13;1.40;;;9.40;99.90;;;-141.84;66.13;19710.19;5070912;28;20295;-61
2023/03/26 07:02:44;;;;;;;3.53;1.30;;;9.50;99.90;;;-141.84;65.73;19708.16;5069446;28;20723;-59
2023/03/26 07:05:12;;;;;;;1.57;1.30;;;9.60;99.90;;;-141.84;65.11;19720.34;5069748;28;20221;-59
2023/03/26 07:07:41;;;;;;;10.33;5.63;;;9.70;99.90;;;-141.84;64.27;19724.41;5069985;28;20228;-60
2023/03/26 07:10:14;;;;;;;9.87;6.87;;;9.80;99.90;;;-141.84;64.59;19730.50;5070277;28;20376;-63
2023/03/26 07:12:43;;;;;;;2.07;1.40;;;9.90;99.90;;;-141.84;64.91;19693.94;5069404;28;20723;-60
2023/03/26 07:15:11;;;;;;;1.53;1.30;;;9.90;99.90;;;-141.84;64.41;19752.88;5070257;28;20692;-59
2023/03/26 07:17:40;;;;;;;4.53;1.90;;;9.90;99.90;;;-141.84;63.47;19791.47;5069714;28;20236;-61
2023/03/26 07:20:12;;;;;;;4.63;1.70;;;10.10;99.90;;;-141.84;63.57;19756.94;5069973;28;20301;-60
2023/03/26 07:22:41;;;;;;;2.70;1.40;;;10.10;99.90;;;-141.84;63.48;19752.88;5052146;28;20231;-60
2023/03/26 07:25:12;;;;;;;3.87;1.47;;;10.10;99.90;;;-141.84;63.97;19750.84;5056423;28;20297;-60
2023/03/26 07:27:59;;;;;;;7.17;2.03;;;10.00;99.90;;;-141.84;64.29;19771.16;5069349;28;20207;-59
2023/03/26 07:30:36;;;;;;;3.47;1.90;;;10.10;99.90;;;-141.84;63.40;19797.59;5070531;28;20618;-59
2023/03/26 07:33:15;;;;;;;2.63;1.50;;;10.20;99.90;;;-141.84;63.38;19832.13;5069575;28;20228;-59
2023/03/26 07:35:55;;;;;;;2.90;1.43;;;10.30;99.90;;;-141.84;64.00;19793.50;5068873;28;20224;-59
2023/03/26 07:38:45;;;;;;;3.27;1.73;;;10.30;99.90;;;-141.84;63.50;19801.66;5069581;28;20240;-59
2023/03/26 07:41:23;;;;;;;4.57;1.70;;;10.30;99.90;;;-141.84;62.55;19826.03;5069968;28;20718;-59
2023/03/26 07:44:23;;;;;;;4.53;1.33;;;10.50;99.90;;;-141.84;62.10;19850.41;5069461;28;20230;-58
2023/03/26 07:46:52;;;;;;;3.20;1.43;;;10.60;99.90;;;-141.84;61.94;19848.38;5069599;28;20231;-59
2023/03/26 07:49:22;;;;;;;2.20;1.40;;;10.70;99.90;;;-141.84;61.69;19882.94;5069671;28;20303;-60
2023/03/26 07:51:52;;;;;;;4.63;1.70;;;10.80;99.90;;;-141.84;60.87;19903.25;5069716;28;20266;-62
2023/03/26 07:54:21;;;;;;;4.03;1.60;;;11.00;99.90;;;-141.84;60.68;19903.25;5070154;28;20196;-75
2023/03/26 07:56:56;;;;;;;2.47;1.80;;;11.10;99.90;;;-141.84;60.49;19903.25;5069472;28;20739;-72
2023/03/26 07:59:35;;;;;;;3.03;1.60;;;11.30;99.90;;;-141.84;60.07;19956.09;5069436;28;20303;-73
2023/03/26 08:03:07;;;;;;;4.90;1.90;;;11.30;99.90;;;-141.84;60.08;19968.31;5069611;28;20722;-72
2023/03/26 08:05:47;;;;;;;4.23;2.10;;;11.30;99.90;;;-141.84;59.74;19960.16;5059749;28;20224;-73
2023/03/26 08:08:29;;;;;;;3.27;1.77;;;11.30;99.90;;;-141.84;60.48;19911.41;5073427;28;20697;-72
2023/03/26 08:11:14;;;;;;;5.83;2.20;;;11.20;99.90;;;-141.84;60.00;19956.09;5073637;28;20896;-73
2023/03/26 08:14:03;;;;;;;7.13;1.87;;;11.20;99.90;;;-141.84;59.94;19937.81;5073100;28;20228;-72
2023/03/26 08:16:43;;;;;;;5.20;2.00;;;11.30;99.90;;;-141.84;59.90;19962.19;5073215;28;20590;-71
2023/03/26 08:19:39;;;;;;;4.27;1.80;;;11.40;99.90;;;-141.84;59.38;19960.16;5073132;28;20592;-72
2023/03/26 08:22:16;;;;;;;6.77;1.90;;;11.40;99.90;;;-141.84;59.11;19966.28;5073183;28;20220;-74
2023/03/26 08:25:10;;;;;;;7.77;2.00;;;11.40;99.90;;;-141.84;58.84;19958.13;5072987;28;20240;-73
2023/03/26 08:27:42;;;;;;;3.97;1.80;;;11.50;99.90;;;-141.84;58.70;19939.84;5073381;28;20813;-74
2023/03/26 08:30:18;;;;;;;4.63;1.77;;;11.50;99.90;;;-141.84;59.32;19976.44;5053352;28;20205;-74
2023/03/26 08:32:56;;;;;;;4.27;2.27;;;11.40;99.90;;;-141.84;58.99;19958.13;5074672;28;20602;-73
2023/03/26 08:35:27;;;;;;;3.67;2.17;;;11.40;99.90;;;-141.84;58.87;19998.78;5076015;28;20275;-73
2023/03/26 08:37:55;;;;;;;8.23;2.80;;;11.50;99.90;;;-141.84;58.61;20019.13;5073770;28;20594;-72
2023/03/26 08:41:04;;;;;;;6.97;2.00;;;11.50;99.90;;;-141.84;58.56;20029.28;5073389;28;20601;-73
2023/03/26 08:44:16;;;;;;;5.23;1.90;;;11.70;99.90;;;-141.84;57.38;20047.56;5056755;28;20226;-72
2023/03/26 08:47:27;;;;;;;4.37;1.83;;;11.90;99.90;;;-141.84;56.99;20078.06;5074831;28;20235;-73
2023/03/26 08:50:35;;;;;;;8.53;2.63;;;11.90;99.90;;;-141.84;56.49;20110.56;5074622;28;20226;-74
2023/03/26 08:53:35;;;;;;;4.10;1.83;;;12.10;99.90;;;-141.84;56.78;20088.22;5066750;28;20224;-74
2023/03/26 08:56:19;;;;;;;4.30;2.27;;;12.10;99.90;;;-141.84;56.54;20069.94;5072386;28;20232;-74
2023/03/26 08:59:31;;;;;;;6.73;2.30;;;12.10;99.90;;;-141.84;57.54;20057.72;5074432;28;20228;-73
2023/03/26 09:02:25;;;;;;;4.70;1.97;;;12.10;99.90;;;-141.84;57.39;20074.00;5071560;28;20220;-74
2023/03/26 09:05:28;;;;;;;5.93;2.67;;;12.10;99.90;;;-141.84;57.08;20061.78;5071913;28;20282;-74
2023/03/26 09:08:44;;;;;;;5.73;2.43;;;12.00;99.90;;;-141.84;55.81;20130.91;5061905;28;20624;-74
2023/03/26 09:12:20;;;;;;;5.23;2.67;;;12.30;99.90;;;-141.84;56.33;20090.25;5070960;28;20247;-73
2023/03/26 09:15:40;;;;;;;6.53;2.60;;;12.40;99.90;;;-141.84;54.69;20155.28;5070337;28;20271;-73
2023/03/26 09:19:02;;;;;;;6.88;2.55;;;12.70;99.90;;;-141.84;55.31;20173.59;5060673;28;20218;-72
2023/03/26 09:22:17;;;;;;;6.28;2.55;;;12.70;99.90;;;-141.84;54.79;20155.28;5043903;28;20221;-72
2023/03/26 09:25:24;;;;;;;7.63;2.67;;;12.70;99.90;;;-141.84;55.04;20122.78;5031784;28;20614;-73
2023/03/26 09:28:35;;;;;;;6.20;3.03;;;12.60;99.90;;;-141.84;55.26;20090.25;5040722;28;20211;-72
2023/03/26 09:32:11;;;;;;;6.93;2.90;;;12.50;99.90;;;-141.84;54.66;20143.09;5055119;28;20247;-71
2023/03/26 09:35:07;;;;;;;5.83;2.90;;;12.70;99.90;;;-141.84;54.15;20206.09;5035576;28;20230;-74
2023/03/26 09:37:56;;;;;;;6.87;3.60;;;12.80;99.90;;;-141.84;52.98;20265.03;5070003;28;20224;-73
2023/03/26 09:40:38;;;;;;;7.47;3.53;;;13.10;99.90;;;-141.84;53.44;20200.00;5070167;28;20232;-73
2023/03/26 09:43:42;;;;;;;6.93;3.60;;;13.10;99.90;;;-141.84;54.22;20191.88;5072909;28;20770;-73
2023/03/26 09:46:29;;;;;;;6.75;2.95;;;12.90;99.90;;;-141.84;53.37;20200.00;5074789;28;20231;-73
2023/03/26 09:49:35;;;;;;;8.40;3.07;;;13.00;99.90;;;-141.84;53.09;20212.19;5072579;28;20192;-73
2023/03/26 09:52:26;;;;;;;6.23;2.93;;;13.00;99.90;;;-141.84;53.70;20216.25;5071071;28;20227;-74
2023/03/26 09:55:19;;;;;;;6.18;2.55;;;13.10;99.90;;;-141.84;53.44;20216.25;5071480;28;20197;-72
2023/03/26 09:58:12;;;;;;;6.73;3.40;;;13.10;99.90;;;-141.84;53.98;20202.03;5071096;28;20707;-72
2023/03/26 10:00:52;;;;;;;8.93;3.90;;;13.00;99.90;;;-141.84;53.39;20220.34;5071201;28;20204;-71
2023/03/26 10:03:39;;;;;;;7.53;3.33;;;13.00;99.90;;;-141.84;53.90;20202.03;5071439;28;20672;-71
2023/03/26 10:06:26;;;;;;;8.50;3.03;;;12.90;99.90;;;-141.84;52.38;20252.84;5051565;28;20206;-71
2023/03/26 10:09:18;;;;;;;5.80;3.10;;;13.10;99.90;;;-141.84;52.33;20309.75;5069525;28;20247;-71
2023/03/26 10:12:22;;;;;;;7.63;2.70;;;13.40;99.90;;;-141.84;50.55;20441.88;5070866;28;20223;-72
2023/03/26 10:15:07;;;;;;;5.22;2.80;;;13.90;99.90;;;-141.84;48.75;20462.22;5056337;28;20724;-72
2023/03/26 10:17:55;;;;;;;4.15;2.17;;;14.20;99.90;;;-141.84;49.38;20458.16;5050880;28;20240;-71
2023/03/26 10:20:53;;;;;;;5.35;4.10;;;14.40;99.90;;;-141.84;49.03;20462.22;5050509;28;20701;-71
2023/03/26 10:23:42;;;;;;;4.05;2.75;;;14.60;99.90;;;-141.84;49.28;20472.38;5030738;28;20237;-72
2023/03/26 10:26:34;;;;;;;4.65;3.55;;;14.60;99.90;;;-141.84;48.17;20435.78;5043145;28;20276;-72
2023/03/26 10:30:03;;;;;;;6.57;3.40;;;14.60;99.90;;;-141.84;48.75;20425.63;5056790;28;20693;-71
2023/03/26 10:32:44;;;;;;;6.10;3.72;;;14.50;99.90;;;-141.84;48.60;20419.53;4983560;28;20227;-72
2023/03/26 10:35:31;;;;;;;8.00;3.88;;;14.50;99.90;;;-141.84;48.37;20437.81;5046239;28;20283;-73
2023/03/26 10:38:15;;;;;;;7.05;3.33;;;14.60;99.90;;;-141.84;48.97;20399.19;5050661;28;20227;-71
2023/03/26 10:40:58;;;;;;;5.70;3.80;;;14.40;99.90;;;-141.84;49.33;20324.00;5061669;28;20410;-71
2023/03/26 10:44:15;;;;;;;10.02;3.58;;;14.20;99.90;;;-141.84;50.46;20281.31;5063610;28;20735;-72
2023/03/26 10:47:27;;;;;;;7.38;3.47;;;13.90;99.90;;;-141.84;50.13;20319.94;5050368;28;20244;-71
2023/03/26 10:50:26;;;;;;;7.05;2.83;;;13.90;99.90;;;-141.84;50.42;20317.91;5030545;28;20229;-72
2023/03/26 10:53:00;;;;;;;6.97;3.05;;;13.90;99.90;;;-141.84;49.71;20350.41;5057305;28;20228;-71